METAR AND TAF INFORMATION
METAR FOR LFPB
ADDS - METARS form results

(2348 UTC 16 June 2019)
Data provider http://aviationweather.gov/metar/data/
 
METAR text: LFPB 162330Z AUTO 35003KT CAVOK 15/11 Q1021 NOSIG
Conditions at: LFPB (PARIS/LE BOURGET, FR) observed 2330 UTC 16 June 2019
Temperature: 15.0°C (59°F)
Dewpoint: 11.0°C (52°F) [RH = 77%]
Pressure (altimeter): 30.15 inches Hg (1021.0 mb)
Winds: from the N (350 degrees) at 3 MPH (3 knots; 1.5 m/s)
Visibility: 6 or more miles (10+ km)
Ceiling: ceiling and visibility are OK
Clouds: unknown
Weather: no significant weather observed at this time

METAR text: LFPB 162300Z AUTO 36003KT CAVOK 15/11 Q1021 NOSIG
Conditions at: LFPB (PARIS/LE BOURGET, FR) observed 2300 UTC 16 June 2019
Temperature: 15.0°C (59°F)
Dewpoint: 11.0°C (52°F) [RH = 77%]
Pressure (altimeter): 30.15 inches Hg (1021.0 mb)
Winds: from the N (360 degrees) at 3 MPH (3 knots; 1.5 m/s)
Visibility: 6 or more miles (10+ km)
Ceiling: ceiling and visibility are OK
Clouds: unknown
Weather: no significant weather observed at this time

Forecast for: LFPB (PARIS/LE BOURGET, FR)
Text: TAF LFPB 162300Z 1700/1724 12005KT CAVOK
Forecast period: 0000 UTC 17 June 2019 to 0000 UTC 18 June 2019
Forecast type: FROM: standard forecast or significant change
Winds: from the ESE (120 degrees) at 6 MPH (5 knots; 2.6 m/s)
Visibility: 6 or more miles 10+ km)
Ceiling: unknown
Clouds: missing
Weather: NSW  (no significant weather)

 AIRPORT MAP

 RUNWAY INFORMATION
Runway 03 Runway length 8743 ft Runway width 197 ft
Runway elevation 147 ft Runway displaced threshold 0 ft Runway heading 26
Runway 21 Runway length 8743 ft Runway width 197 ft
Runway elevation 182 ft Runway displaced threshold 0 ft Runway heading 206
Runway 07 Runway length 9843 ft Runway width 148 ft
Runway elevation 155 ft Runway displaced threshold 985 ft Runway heading 69
Runway 25 Runway length 9843 ft Runway width 148 ft
Runway elevation 186 ft Runway displaced threshold 2953 ft Runway heading 249
Runway 09 Runway length 6053 ft Runway width 148 ft
Runway elevation 148 ft Runway displaced threshold 0 ft Runway heading 86
Runway 27 Runway length 6053 ft Runway width 148 ft
Runway elevation 166 ft Runway displaced threshold 0 ft Runway heading 266

 AIRPORT FREQUENCIES
Type APP Name DE GAULLE Frequency 121.15 MHZ
Type APP Name DE GAULLE Frequency 136.275 MHZ
Type ATIS Name ATIS Frequency 120 MHZ
Type DEP Name DE GAULLE Frequency 124.35 MHZ
Type GND Name GND Frequency 121.9 MHZ
Type PFLT Name PREFLIGHT Frequency 121.95 MHZ
Type TWR Name TWR Frequency 118.925 MHZ

 AIRPORT NEAR NAVIGATION AIDS
Type VOR-DME Name Le Bourget Frequency 116100 KHZ